createdAt,value
2024-02-29T00:00:02.453Z,14.45
2024-02-29T00:02:32.400Z,13.80
2024-02-29T00:05:00.552Z,12.78
2024-02-29T00:07:28.532Z,12.47
2024-02-29T00:09:56.427Z,11.80
2024-02-29T00:12:24.689Z,11.88
2024-02-29T00:14:52.681Z,11.93
2024-02-29T00:17:22.014Z,11.45
2024-02-29T00:19:49.901Z,12.15
2024-02-29T00:22:17.779Z,10.80
2024-02-29T00:24:45.704Z,11.90
2024-02-29T00:27:13.532Z,11.70
2024-02-29T00:29:43.718Z,11.90
2024-02-29T00:32:12.030Z,11.25
2024-02-29T00:34:39.902Z,10.63
2024-02-29T00:37:08.085Z,11.97
2024-02-29T00:39:36.263Z,11.22
2024-02-29T00:42:04.364Z,10.95
2024-02-29T00:44:32.263Z,11.15
2024-02-29T00:47:00.503Z,11.20
2024-02-29T00:49:28.557Z,10.32
2024-02-29T00:51:56.642Z,10.72
2024-02-29T00:54:25.458Z,10.18
2024-02-29T00:56:53.412Z,10.63
2024-02-29T00:59:21.656Z,12.03
2024-02-29T01:01:49.774Z,9.58
2024-02-29T01:04:18.061Z,9.80
2024-02-29T01:06:46.111Z,10.03
2024-02-29T01:09:14.052Z,9.18
2024-02-29T01:11:42.485Z,9.95
2024-02-29T01:14:10.393Z,9.33
2024-02-29T01:16:38.170Z,8.95
2024-02-29T01:19:07.245Z,9.48
2024-02-29T01:21:35.534Z,9.30
2024-02-29T01:24:03.436Z,8.93
2024-02-29T01:26:32.399Z,9.13
2024-02-29T01:29:00.389Z,8.93
2024-02-29T01:31:28.405Z,8.48
2024-02-29T01:33:56.418Z,8.50
2024-02-29T01:36:24.418Z,8.55
2024-02-29T01:38:52.529Z,9.50
2024-02-29T01:41:20.637Z,10.45
2024-02-29T01:43:55.100Z,11.12
2024-02-29T01:46:24.982Z,12.50
2024-02-29T01:48:55.415Z,14.10
2024-02-29T01:51:24.840Z,12.63
2024-02-29T01:53:53.227Z,11.33
2024-02-29T01:56:22.443Z,10.55
2024-02-29T01:58:50.436Z,9.68
2024-02-29T02:01:19.595Z,8.48
2024-02-29T02:03:48.392Z,8.00
2024-02-29T02:06:16.486Z,7.80
2024-02-29T02:08:46.364Z,8.05
2024-02-29T02:11:14.462Z,8.38
2024-02-29T02:13:42.582Z,8.13
2024-02-29T02:16:11.629Z,8.63
2024-02-29T02:18:39.745Z,8.35
2024-02-29T02:21:07.850Z,7.75
2024-02-29T02:23:35.746Z,8.20
2024-02-29T02:26:03.895Z,8.13
2024-02-29T02:28:31.929Z,7.08
2024-02-29T02:30:59.826Z,7.17
2024-02-29T02:33:27.632Z,7.80
2024-02-29T02:35:56.486Z,7.30
2024-02-29T02:38:24.597Z,7.00
2024-02-29T02:40:52.360Z,7.30
2024-02-29T02:43:20.468Z,7.35
2024-02-29T02:45:48.438Z,7.08
2024-02-29T02:48:16.480Z,7.33
2024-02-29T02:50:44.599Z,8.30
2024-02-29T02:53:12.691Z,7.22
2024-02-29T02:55:40.637Z,7.50
2024-02-29T02:58:09.105Z,7.25
2024-02-29T03:00:37.571Z,6.97
2024-02-29T03:03:05.639Z,7.85
2024-02-29T03:05:33.786Z,7.65
2024-02-29T03:08:04.092Z,7.17
2024-02-29T03:10:32.179Z,7.35
2024-02-29T03:13:00.057Z,7.05
2024-02-29T03:15:28.067Z,7.03
2024-02-29T03:17:56.814Z,8.58
2024-02-29T03:20:25.194Z,8.33
2024-02-29T03:22:53.058Z,10.48
2024-02-29T03:25:21.057Z,6.55
2024-02-29T03:27:50.832Z,5.62
2024-02-29T03:30:18.917Z,6.62
2024-02-29T03:32:46.732Z,6.22
2024-02-29T03:35:14.746Z,6.53
2024-02-29T03:37:42.549Z,7.15
2024-02-29T03:40:11.563Z,6.47
2024-02-29T03:42:40.205Z,7.22
2024-02-29T03:45:08.781Z,7.15
2024-02-29T03:47:36.942Z,7.25
2024-02-29T03:50:05.554Z,7.55
2024-02-29T03:52:33.507Z,7.37
2024-02-29T03:55:01.381Z,8.33
2024-02-29T03:57:29.395Z,8.35
2024-02-29T03:59:57.857Z,8.43
2024-02-29T04:02:25.755Z,8.00
2024-02-29T04:04:54.954Z,7.37
2024-02-29T04:07:22.810Z,7.37
2024-02-29T04:09:52.640Z,7.05
2024-02-29T04:12:20.515Z,7.65
2024-02-29T04:14:48.473Z,7.92
2024-02-29T04:17:16.332Z,7.22
2024-02-29T04:19:46.092Z,6.92
2024-02-29T04:22:17.438Z,8.28
2024-02-29T04:24:45.406Z,7.35
2024-02-29T04:27:13.334Z,7.22
2024-02-29T04:29:41.372Z,9.55
2024-02-29T04:32:09.286Z,8.28
2024-02-29T04:34:37.461Z,7.45
2024-02-29T04:37:05.771Z,8.33
2024-02-29T04:39:33.705Z,9.25
2024-02-29T04:42:01.657Z,10.13
2024-02-29T04:44:29.485Z,12.35
2024-02-29T04:46:57.473Z,13.00
2024-02-29T04:49:25.315Z,13.68
2024-02-29T04:51:54.163Z,12.00
2024-02-29T04:54:22.218Z,10.70
2024-02-29T04:56:50.153Z,10.38
2024-02-29T04:59:17.978Z,10.25
2024-02-29T05:01:46.232Z,9.78
2024-02-29T05:04:14.449Z,9.15
2024-02-29T05:06:42.462Z,8.88
2024-02-29T05:09:10.543Z,8.00
2024-02-29T05:11:39.882Z,8.63
2024-02-29T05:14:10.119Z,8.43
2024-02-29T05:16:38.318Z,7.95
2024-02-29T05:19:06.241Z,8.60
2024-02-29T05:21:34.327Z,8.43
2024-02-29T05:24:02.281Z,9.18
2024-02-29T05:26:30.171Z,8.60
2024-02-29T05:28:57.970Z,9.53
2024-02-29T05:31:25.865Z,9.48
2024-02-29T05:33:54.002Z,9.35
2024-02-29T05:36:23.570Z,8.75
2024-02-29T05:38:51.647Z,9.20
2024-02-29T05:41:19.579Z,9.80
2024-02-29T05:43:47.316Z,9.88
2024-02-29T05:46:16.091Z,10.60
2024-02-29T05:48:44.204Z,9.78
2024-02-29T05:51:12.546Z,10.00
2024-02-29T05:53:40.821Z,11.30
2024-02-29T05:56:08.671Z,10.20
2024-02-29T05:58:36.804Z,9.50
2024-02-29T06:01:05.141Z,9.93
2024-02-29T06:03:33.198Z,10.40
2024-02-29T06:06:01.263Z,9.20
2024-02-29T06:08:29.765Z,8.53
2024-02-29T06:10:57.957Z,8.38
2024-02-29T06:13:25.968Z,8.73
2024-02-29T06:15:53.709Z,7.90
2024-02-29T06:18:22.440Z,9.13
2024-02-29T06:20:50.391Z,8.95
2024-02-29T06:23:19.274Z,8.45
2024-02-29T06:25:48.908Z,8.45
2024-02-29T06:28:19.503Z,8.30
2024-02-29T06:30:47.423Z,9.43
2024-02-29T06:33:15.509Z,9.15
2024-02-29T06:35:43.703Z,9.38
2024-02-29T06:38:15.669Z,9.68
2024-02-29T06:40:43.924Z,8.78
2024-02-29T06:43:11.878Z,9.03
2024-02-29T06:45:45.061Z,8.43
2024-02-29T06:48:13.000Z,8.43
2024-02-29T06:50:40.702Z,9.80
2024-02-29T06:53:08.517Z,10.50
2024-02-29T06:55:37.453Z,10.68
2024-02-29T06:58:06.306Z,18.15
2024-02-29T07:00:34.731Z,12.33
2024-02-29T07:03:02.546Z,10.23
2024-02-29T07:05:33.373Z,9.60
2024-02-29T07:08:01.955Z,8.80
2024-02-29T07:10:30.822Z,8.00
2024-02-29T07:12:59.030Z,8.10
2024-02-29T07:15:27.161Z,9.18
2024-02-29T07:17:55.004Z,9.38
2024-02-29T07:20:25.856Z,9.25
2024-02-29T07:22:53.390Z,9.65
2024-02-29T07:25:21.519Z,9.40
2024-02-29T07:27:49.981Z,10.18
2024-02-29T07:30:19.151Z,9.50
2024-02-29T07:32:47.334Z,9.43
2024-02-29T07:35:17.009Z,9.90
2024-02-29T07:37:45.477Z,9.33
2024-02-29T07:40:13.973Z,10.98
2024-02-29T07:42:41.854Z,9.40
2024-02-29T07:45:10.408Z,8.73
2024-02-29T07:47:40.703Z,9.08
2024-02-29T07:50:10.277Z,8.68
2024-02-29T07:52:38.048Z,8.55
2024-02-29T07:55:06.314Z,9.10
2024-02-29T07:57:35.571Z,9.45
2024-02-29T08:00:04.968Z,8.58
2024-02-29T08:02:34.666Z,8.83
2024-02-29T08:05:02.772Z,9.70
2024-02-29T08:07:31.145Z,10.15
2024-02-29T08:09:58.898Z,8.53
2024-02-29T08:12:27.081Z,9.00
2024-02-29T08:14:54.878Z,8.45
2024-02-29T08:17:26.048Z,15.40
2024-02-29T08:19:54.485Z,8.50
2024-02-29T08:22:22.545Z,8.80
2024-02-29T08:24:50.461Z,8.00
2024-02-29T08:27:18.404Z,8.08
2024-02-29T08:29:46.295Z,7.95
2024-02-29T08:32:15.894Z,9.30
2024-02-29T08:34:45.096Z,8.43
2024-02-29T08:37:13.140Z,8.83
2024-02-29T08:39:41.734Z,9.43
2024-02-29T08:42:10.333Z,8.33
2024-02-29T08:44:43.727Z,9.18
2024-02-29T08:47:11.596Z,9.05
2024-02-29T08:49:39.741Z,8.35
2024-02-29T08:52:08.530Z,11.95
2024-02-29T08:54:36.948Z,7.72
2024-02-29T08:57:06.764Z,7.00
2024-02-29T08:59:35.224Z,6.78
2024-02-29T09:02:03.475Z,7.20
2024-02-29T09:04:31.569Z,6.83
2024-02-29T09:06:59.504Z,5.90
2024-02-29T09:09:30.462Z,8.03
2024-02-29T09:11:58.554Z,8.75
2024-02-29T09:14:26.591Z,8.00
2024-02-29T09:16:54.592Z,6.47
2024-02-29T09:19:22.683Z,6.70
2024-02-29T09:21:50.753Z,7.42
2024-02-29T09:24:18.812Z,8.03
2024-02-29T09:26:46.732Z,7.28
2024-02-29T09:29:14.652Z,7.30
2024-02-29T09:31:44.204Z,9.30
2024-02-29T09:34:12.437Z,8.58
2024-02-29T09:36:40.373Z,6.78
2024-02-29T09:39:08.361Z,6.83
2024-02-29T09:41:58.842Z,8.58
2024-02-29T09:44:09.421Z,7.92
2024-02-29T09:46:39.212Z,7.65
2024-02-29T09:49:08.663Z,6.78
2024-02-29T09:51:38.496Z,6.67
2024-02-29T09:54:07.339Z,8.38
2024-02-29T09:56:35.720Z,6.25
2024-02-29T09:59:04.542Z,6.50
2024-02-29T10:01:32.484Z,7.15
2024-02-29T10:04:02.839Z,7.55
2024-02-29T10:06:35.706Z,6.67
2024-02-29T10:09:03.816Z,8.15
2024-02-29T10:11:32.586Z,7.40
2024-02-29T10:14:02.170Z,8.20
2024-02-29T10:16:32.109Z,7.35
2024-02-29T10:19:01.636Z,7.55
2024-02-29T10:21:33.910Z,7.72
2024-02-29T10:24:01.764Z,8.33
2024-02-29T10:26:29.722Z,8.70
2024-02-29T10:29:06.131Z,8.85
2024-02-29T10:31:34.156Z,8.25
2024-02-29T10:34:02.082Z,8.55
2024-02-29T10:36:34.803Z,8.53
2024-02-29T10:39:02.928Z,7.62
2024-02-29T10:41:32.801Z,8.00
2024-02-29T10:44:05.338Z,7.12
2024-02-29T10:46:36.963Z,7.37
2024-02-29T10:49:13.195Z,7.72
2024-02-29T10:51:48.028Z,9.05
2024-02-29T10:54:20.822Z,8.50
2024-02-29T10:56:52.622Z,9.78
2024-02-29T10:59:21.002Z,8.55
2024-02-29T11:01:49.655Z,8.15
2024-02-29T11:04:17.917Z,10.32
2024-02-29T11:06:48.875Z,9.03
2024-02-29T11:09:23.241Z,8.53
2024-02-29T11:12:11.862Z,11.40
2024-02-29T11:14:45.477Z,8.13
2024-02-29T11:17:16.982Z,7.87
2024-02-29T11:19:52.005Z,8.28
2024-02-29T11:22:16.799Z,9.45
2024-02-29T11:24:46.751Z,8.73
2024-02-29T11:27:14.658Z,9.23
2024-02-29T11:29:49.091Z,8.95
2024-02-29T11:32:26.899Z,11.03
2024-02-29T11:34:56.320Z,12.50
2024-02-29T11:37:28.137Z,12.15
2024-02-29T11:40:09.060Z,11.78
2024-02-29T11:42:38.909Z,12.75
2024-02-29T11:45:08.587Z,12.55
2024-02-29T11:47:36.626Z,12.98
2024-02-29T11:50:05.016Z,12.90
2024-02-29T11:52:33.150Z,10.90
2024-02-29T11:55:03.901Z,11.97
2024-02-29T11:57:32.034Z,12.33
2024-02-29T12:00:00.611Z,10.98
2024-02-29T12:02:28.802Z,12.53
2024-02-29T12:04:58.881Z,12.75
2024-02-29T12:07:26.800Z,13.10
2024-02-29T12:09:54.948Z,13.25
2024-02-29T12:12:23.057Z,15.38
2024-02-29T12:14:52.234Z,12.60
2024-02-29T12:17:20.513Z,10.70
2024-02-29T12:19:48.255Z,10.70
2024-02-29T12:22:19.578Z,10.60
2024-02-29T12:24:47.458Z,9.68
2024-02-29T12:27:15.815Z,9.63
2024-02-29T12:29:44.241Z,12.60
2024-02-29T12:32:12.086Z,10.43
2024-02-29T12:34:44.802Z,9.58
2024-02-29T12:37:12.859Z,9.98
2024-02-29T12:39:41.099Z,11.55
2024-02-29T12:42:09.065Z,11.08
2024-02-29T12:44:37.568Z,8.35
2024-02-29T12:47:05.512Z,9.30
2024-02-29T12:49:33.367Z,10.28
2024-02-29T12:52:01.248Z,10.70
2024-02-29T12:54:43.997Z,10.38
2024-02-29T12:57:12.266Z,11.03
2024-02-29T12:59:40.839Z,8.98
2024-02-29T13:02:08.792Z,7.75
2024-02-29T13:04:36.993Z,7.42
2024-02-29T13:09:55.865Z,10.00
2024-02-29T13:12:23.988Z,10.40
2024-02-29T13:14:51.692Z,9.90
2024-02-29T13:17:19.436Z,9.98
2024-02-29T13:19:47.871Z,9.63
2024-02-29T13:22:15.974Z,9.88
2024-02-29T13:24:45.726Z,10.32
2024-02-29T13:27:13.764Z,9.38
2024-02-29T13:29:41.635Z,11.18
2024-02-29T13:32:09.571Z,12.05
2024-02-29T13:34:37.761Z,11.88
2024-02-29T13:37:05.992Z,12.60
2024-02-29T13:39:36.509Z,14.00
2024-02-29T13:42:06.154Z,12.65
2024-02-29T13:44:33.870Z,14.73
2024-02-29T13:47:03.601Z,15.80
2024-02-29T13:49:32.082Z,18.95
2024-02-29T13:52:00.013Z,17.07
2024-02-29T13:54:27.787Z,19.42
2024-02-29T13:56:56.666Z,27.80
2024-02-29T13:59:24.941Z,18.90
2024-02-29T14:01:52.969Z,16.93
2024-02-29T14:04:21.405Z,21.42
2024-02-29T14:06:49.434Z,19.35
2024-02-29T14:09:17.579Z,19.10
2024-02-29T14:11:45.452Z,18.37
2024-02-29T14:14:13.535Z,17.30
2024-02-29T14:16:42.088Z,17.05
2024-02-29T14:19:10.497Z,20.17
2024-02-29T14:21:39.420Z,24.60
2024-02-29T14:24:07.287Z,26.50
2024-02-29T14:26:35.214Z,28.77
2024-02-29T14:29:04.147Z,39.92
2024-02-29T14:31:32.034Z,38.10
2024-02-29T14:34:00.584Z,37.33
2024-02-29T14:36:28.582Z,38.88
2024-02-29T14:38:56.443Z,36.25
2024-02-29T14:41:26.000Z,37.28
2024-02-29T14:43:54.005Z,35.50
2024-02-29T14:46:22.468Z,35.83
2024-02-29T14:48:51.572Z,34.83
2024-02-29T14:51:19.604Z,35.25
2024-02-29T14:53:51.582Z,34.35
2024-02-29T14:56:27.621Z,34.63
2024-02-29T14:58:58.422Z,33.95
2024-02-29T15:01:26.809Z,33.23
2024-02-29T15:03:54.838Z,31.70
2024-02-29T15:06:22.863Z,33.95
2024-02-29T15:08:52.079Z,36.80
2024-02-29T15:11:19.937Z,38.15
2024-02-29T15:13:47.776Z,42.03
2024-02-29T15:16:17.148Z,46.58
2024-02-29T15:18:45.245Z,43.63
2024-02-29T15:21:13.323Z,43.65
2024-02-29T15:23:41.432Z,42.33
2024-02-29T15:26:11.284Z,37.20
2024-02-29T15:28:43.979Z,34.00
2024-02-29T15:31:12.197Z,29.72
2024-02-29T15:33:40.081Z,29.12
2024-02-29T15:36:11.520Z,29.95
2024-02-29T15:38:39.847Z,33.38
2024-02-29T15:41:07.709Z,35.03
2024-02-29T15:43:35.722Z,35.90
2024-02-29T15:46:03.885Z,54.33
2024-02-29T15:48:31.846Z,197.93
2024-02-29T15:50:59.830Z,125.47
2024-02-29T15:53:27.757Z,101.02
2024-02-29T15:55:55.657Z,100.02
2024-02-29T15:58:23.835Z,75.83
2024-02-29T16:00:51.858Z,69.47
2024-02-29T16:03:20.095Z,75.52
2024-02-29T16:05:48.181Z,60.25
2024-02-29T16:08:16.036Z,59.90
2024-02-29T16:10:43.980Z,60.43
2024-02-29T16:13:12.100Z,60.90
2024-02-29T16:15:39.977Z,61.28
2024-02-29T16:18:09.656Z,62.13
2024-02-29T16:20:37.416Z,59.42
2024-02-29T16:23:05.376Z,61.85
2024-02-29T16:25:33.286Z,65.52
2024-02-29T16:28:02.971Z,59.10
2024-02-29T16:30:32.064Z,54.40
2024-02-29T16:32:59.758Z,44.25
2024-02-29T16:35:27.995Z,38.48
2024-02-29T16:37:58.461Z,35.40
2024-02-29T16:40:26.061Z,36.28
2024-02-29T16:42:54.645Z,38.80
2024-02-29T16:45:23.637Z,43.78
2024-02-29T16:47:51.749Z,42.30
2024-02-29T16:50:21.250Z,43.20
2024-02-29T16:52:50.885Z,46.80
2024-02-29T16:55:18.846Z,49.55
2024-02-29T16:57:47.191Z,49.50
2024-02-29T17:00:17.753Z,50.85
2024-02-29T17:02:46.066Z,52.25
2024-02-29T17:05:14.400Z,49.63
2024-02-29T17:07:45.313Z,49.88
2024-02-29T17:10:13.820Z,50.00
2024-02-29T17:12:42.697Z,48.50
2024-02-29T17:15:11.314Z,47.40
2024-02-29T17:17:39.422Z,47.55
2024-02-29T17:20:08.668Z,47.00
2024-02-29T17:22:36.733Z,48.02
2024-02-29T17:25:05.552Z,48.48
2024-02-29T17:27:33.319Z,47.08
2024-02-29T17:30:01.090Z,46.42
2024-02-29T17:32:30.962Z,46.80
2024-02-29T17:34:58.856Z,47.27
2024-02-29T17:37:29.301Z,48.73
2024-02-29T17:39:56.667Z,41.60
2024-02-29T17:42:29.085Z,42.65
2024-02-29T17:44:56.889Z,46.23
2024-02-29T17:47:24.875Z,52.75
2024-02-29T17:49:52.853Z,53.90
2024-02-29T17:52:20.784Z,53.80
2024-02-29T17:54:48.810Z,54.08
2024-02-29T17:57:16.954Z,55.60
2024-02-29T17:59:45.115Z,56.50
2024-02-29T18:02:13.122Z,55.98
2024-02-29T18:04:41.121Z,56.37
2024-02-29T18:07:08.998Z,54.18
2024-02-29T18:09:38.760Z,54.55
2024-02-29T18:12:08.298Z,55.75
2024-02-29T18:14:36.300Z,58.28
2024-02-29T18:17:04.518Z,59.18
2024-02-29T18:19:32.420Z,55.00
2024-02-29T18:22:00.485Z,54.55
2024-02-29T18:24:30.759Z,62.85
2024-02-29T18:26:58.669Z,63.28
2024-02-29T18:29:27.715Z,63.25
2024-02-29T18:31:55.925Z,63.55
2024-02-29T18:34:25.951Z,65.25
2024-02-29T18:36:54.286Z,64.32
2024-02-29T18:39:23.565Z,60.98
2024-02-29T18:41:51.768Z,64.65
2024-02-29T18:44:19.652Z,63.90
2024-02-29T18:46:47.542Z,64.67
2024-02-29T18:49:16.025Z,63.30
2024-02-29T18:51:48.826Z,64.97
2024-02-29T18:54:18.491Z,65.47
2024-02-29T18:56:48.231Z,66.22
2024-02-29T18:59:16.932Z,62.62
2024-02-29T19:01:45.537Z,58.80
2024-02-29T19:04:18.486Z,57.40
2024-02-29T19:06:49.160Z,57.15
2024-02-29T19:09:17.561Z,57.30
2024-02-29T19:11:45.591Z,57.78
2024-02-29T19:14:13.532Z,56.33
2024-02-29T19:16:45.280Z,54.58
2024-02-29T19:19:13.513Z,55.75
2024-02-29T19:21:41.553Z,55.95
2024-02-29T19:24:11.415Z,55.43
2024-02-29T19:26:39.438Z,56.53
2024-02-29T19:29:07.255Z,57.85
2024-02-29T19:31:35.024Z,58.60
2024-02-29T19:34:04.703Z,59.93
2024-02-29T19:36:32.867Z,58.73
2024-02-29T19:39:01.872Z,57.35
2024-02-29T19:41:29.850Z,58.48
2024-02-29T19:43:57.951Z,60.45
2024-02-29T19:46:26.126Z,61.00
2024-02-29T19:48:54.929Z,57.30
2024-02-29T19:51:23.152Z,67.45
2024-02-29T19:53:50.960Z,49.25
2024-02-29T19:56:18.979Z,48.38
2024-02-29T19:58:47.077Z,41.95
2024-02-29T20:01:15.033Z,42.75
2024-02-29T20:03:43.156Z,39.98
2024-02-29T20:06:11.523Z,39.75
2024-02-29T20:08:41.636Z,38.88
2024-02-29T20:11:09.826Z,40.63
2024-02-29T20:13:38.151Z,38.17
2024-02-29T20:16:07.552Z,36.83
2024-02-29T20:18:37.338Z,37.17
2024-02-29T20:21:05.885Z,37.73
2024-02-29T20:23:34.578Z,36.55
2024-02-29T20:26:03.120Z,38.88
2024-02-29T20:28:33.356Z,37.13
2024-02-29T20:31:03.439Z,34.55
2024-02-29T20:33:31.492Z,29.55
2024-02-29T20:35:59.426Z,32.48
2024-02-29T20:38:27.272Z,24.50
2024-02-29T20:40:55.289Z,25.75
2024-02-29T20:43:23.402Z,23.92
2024-02-29T20:45:51.807Z,23.52
2024-02-29T20:48:21.869Z,23.73
2024-02-29T20:50:50.374Z,22.52
2024-02-29T20:53:32.055Z,23.45
2024-02-29T20:56:00.830Z,22.90
2024-02-29T20:58:28.881Z,22.87
2024-02-29T21:00:59.498Z,24.00
2024-02-29T21:03:34.540Z,24.80
2024-02-29T21:06:02.460Z,25.57
2024-02-29T21:08:36.751Z,26.70
2024-02-29T21:11:04.993Z,26.25
2024-02-29T21:13:34.342Z,26.40
2024-02-29T21:16:02.524Z,23.90
2024-02-29T21:18:30.509Z,25.68
2024-02-29T21:20:58.443Z,22.40
2024-02-29T21:23:27.493Z,23.47
2024-02-29T21:25:55.358Z,23.52
2024-02-29T21:28:23.438Z,23.42
2024-02-29T21:30:51.845Z,19.98
2024-02-29T21:33:20.865Z,21.15
2024-02-29T21:35:50.954Z,22.27
2024-02-29T21:38:19.058Z,23.98
2024-02-29T21:40:46.870Z,22.55
2024-02-29T21:43:15.002Z,20.82
2024-02-29T21:45:43.512Z,19.67
2024-02-29T21:48:11.357Z,17.80
2024-02-29T21:50:41.262Z,15.63
2024-02-29T21:53:09.190Z,15.95
2024-02-29T21:55:38.397Z,13.43
2024-02-29T21:58:06.971Z,13.22
2024-02-29T22:00:34.996Z,11.73
2024-02-29T22:03:02.794Z,13.58
2024-02-29T22:05:30.663Z,12.78
2024-02-29T22:08:00.325Z,12.55
2024-02-29T22:10:28.521Z,11.80
2024-02-29T22:12:57.316Z,11.97
2024-02-29T22:15:27.494Z,11.65
2024-02-29T22:17:57.710Z,12.50
2024-02-29T22:20:25.142Z,11.00
2024-02-29T22:22:53.366Z,11.20
2024-02-29T22:25:21.525Z,12.07
2024-02-29T22:27:49.609Z,11.40
2024-02-29T22:30:18.335Z,11.05
2024-02-29T22:32:46.315Z,13.22
2024-02-29T22:35:14.468Z,15.03
2024-02-29T22:37:42.441Z,13.43
2024-02-29T22:40:11.069Z,11.93
2024-02-29T22:42:38.845Z,11.40
2024-02-29T22:45:10.299Z,10.98
2024-02-29T22:47:38.399Z,11.20
2024-02-29T22:50:07.171Z,10.35
2024-02-29T22:52:35.487Z,10.08
2024-02-29T22:55:05.920Z,10.32
2024-02-29T22:57:33.934Z,9.73
2024-02-29T23:00:03.927Z,11.25
2024-02-29T23:02:31.868Z,12.50
2024-02-29T23:05:00.301Z,11.63
2024-02-29T23:07:28.235Z,9.13
2024-02-29T23:09:56.740Z,9.13
2024-02-29T23:12:24.742Z,9.78
2024-02-29T23:14:52.631Z,8.78
2024-02-29T23:17:20.553Z,9.20
2024-02-29T23:19:48.444Z,8.83
2024-02-29T23:22:16.398Z,8.88
2024-02-29T23:24:45.606Z,8.68
2024-02-29T23:27:14.553Z,8.80
2024-02-29T23:29:42.519Z,8.78
2024-02-29T23:32:11.951Z,9.83
2024-02-29T23:34:40.565Z,9.35
2024-02-29T23:37:09.953Z,9.48
2024-02-29T23:39:38.275Z,9.65
2024-02-29T23:42:06.370Z,10.23
2024-02-29T23:44:34.256Z,10.20
2024-02-29T23:47:02.203Z,10.13
2024-02-29T23:49:29.977Z,10.10
2024-02-29T23:51:57.933Z,10.38
2024-02-29T23:54:25.798Z,11.88
2024-02-29T23:56:53.777Z,12.20
2024-02-29T23:59:21.787Z,12.30
